Time;durP1;ratioP1;P1;durP2;ratioP2;P2;SDS_P1;SDS_P2;PMS_P1;PMS_P2;Temp;Humidity;BMP_temperature;BMP_pressure;BME280_temperature;BME280_humidity;BME280_pressure;Samples;Min_cycle;Max_cycle;Signal;HPM_P1;HPM_P2
2022/05/05 00:01:04;;;;;;;5.37;3.47;;;6.10;90.90;5.30;100700;;;;586471;240;24149;-80
2022/05/05 00:03:32;;;;;;;6.37;3.60;;;6.20;91.00;5.40;100695;;;;586472;240;24060;-80
2022/05/05 00:06:00;;;;;;;5.53;3.20;;;6.30;91.20;5.40;100702;;;;587434;240;24079;-77
2022/05/05 00:08:30;;;;;;;9.33;3.00;;;6.30;91.20;5.50;100695;;;;586713;240;24091;-79
2022/05/05 00:16:28;;;;;;;6.73;3.57;;;6.40;91.50;5.60;100700;;;;592442;241;24146;-78
2022/05/05 00:18:56;;;;;;;7.30;2.90;;;6.40;91.40;5.60;100692;;;;587466;241;24057;-79
2022/05/05 00:21:25;;;;;;;5.60;3.13;;;6.50;91.30;5.60;100703;;;;586666;241;24061;-81
2022/05/05 00:23:53;;;;;;;6.03;3.27;;;6.50;91.30;5.60;100700;;;;586674;241;25192;-80
2022/05/05 00:26:21;;;;;;;14.30;2.80;;;6.50;91.30;5.70;100705;;;;586744;241;24054;-79
2022/05/05 00:28:49;;;;;;;3.13;2.37;;;6.50;91.30;5.70;100704;;;;586465;241;24053;-78
2022/05/05 00:31:17;;;;;;;6.17;2.77;;;6.60;91.20;5.70;100687;;;;585966;241;24110;-77
2022/05/05 00:33:45;;;;;;;4.67;2.83;;;6.60;91.10;5.80;100695;;;;586005;241;24109;-77
2022/05/05 00:36:13;;;;;;;8.37;2.97;;;6.60;91.00;5.80;100688;;;;585923;241;24154;-75
2022/05/05 00:38:41;;;;;;;5.57;2.50;;;6.70;90.90;5.90;100693;;;;587017;241;24148;-77
2022/05/05 00:41:08;;;;;;;7.53;3.00;;;6.70;90.80;5.90;100690;;;;585784;241;24067;-77
2022/05/05 00:43:36;;;;;;;3.30;2.20;;;6.70;90.80;5.90;100696;;;;585713;241;24174;-77
2022/05/05 00:46:04;;;;;;;7.33;2.63;;;6.80;90.80;6.00;100695;;;;586583;241;24108;-76
2022/05/05 00:48:32;;;;;;;4.97;2.70;;;6.80;90.80;6.00;100686;;;;597030;239;24126;-76
2022/05/05 00:51:00;;;;;;;6.40;2.50;;;6.80;90.80;6.00;100688;;;;586711;240;24075;-76
2022/05/05 00:53:29;;;;;;;3.97;2.37;;;6.90;90.70;6.10;100692;;;;596367;240;24072;-75
2022/05/05 00:55:57;;;;;;;4.27;2.87;;;6.90;90.70;6.10;100694;;;;586095;240;24099;-76
2022/05/05 00:58:25;;;;;;;4.77;2.30;;;7.00;90.60;6.20;100695;;;;585806;240;24124;-76
2022/05/05 01:00:56;;;;;;;4.27;2.60;;;7.10;90.30;6.30;100696;;;;585877;240;25118;-76
2022/05/05 01:03:21;;;;;;;4.87;2.53;;;7.10;90.20;6.30;100688;;;;586617;240;24096;-76
2022/05/05 01:05:50;;;;;;;2.63;2.43;;;7.10;90.10;6.40;100693;;;;585756;240;24065;-76
2022/05/05 01:08:18;;;;;;;5.73;2.60;;;7.20;90.00;6.50;100670;;;;585675;240;24069;-76
2022/05/05 01:10:45;;;;;;;6.03;3.00;;;7.30;89.70;6.50;100684;;;;585541;240;24116;-76
2022/05/05 01:13:13;;;;;;;4.50;2.90;;;7.40;89.60;6.60;100686;;;;585414;240;24071;-77
2022/05/05 01:15:41;;;;;;;3.53;2.13;;;7.40;89.80;6.70;100697;;;;595747;240;25160;-76
2022/05/05 01:18:09;;;;;;;3.17;2.10;;;7.50;88.50;6.70;100683;;;;586454;240;24040;-75
2022/05/05 01:20:49;;;;;;;3.57;2.00;;;7.60;88.40;6.80;100686;;;;585857;240;24105;-79
2022/05/05 01:23:14;;;;;;;4.37;2.57;;;7.60;88.00;6.90;100685;;;;585907;240;24079;-80
2022/05/05 01:28:28;;;;;;;2.80;2.37;;;7.70;87.30;7.00;100673;;;;591348;241;24109;-76
2022/05/05 01:30:55;;;;;;;4.70;2.63;;;7.80;86.70;7.00;100685;;;;585540;241;24059;-76
2022/05/05 01:33:23;;;;;;;2.97;2.77;;;7.80;86.20;7.10;100679;;;;585854;241;24071;-75
2022/05/05 01:35:54;;;;;;;6.30;2.70;;;7.90;85.90;7.10;100681;;;;586477;241;24056;-75
2022/05/05 01:38:36;;;;;;;5.63;2.80;;;7.90;85.30;7.20;100680;;;;595336;241;24068;-75
2022/05/05 01:40:58;;;;;;;12.80;2.80;;;8.00;84.90;7.20;100670;;;;586843;241;24075;-76
2022/05/05 01:43:27;;;;;;;3.17;2.37;;;8.00;84.70;7.20;100680;;;;585695;237;24069;-76
2022/05/05 01:45:55;;;;;;;3.65;3.10;;;8.00;84.50;7.20;100681;;;;580631;241;35256;-76
2022/05/05 01:48:23;;;;;;;3.77;2.63;;;8.10;85.00;7.30;100684;;;;586820;241;24064;-77
2022/05/05 01:50:51;;;;;;;3.87;2.70;;;8.10;84.60;7.30;100683;;;;585446;241;24087;-77
2022/05/05 01:53:19;;;;;;;4.23;2.40;;;8.10;84.50;7.30;100684;;;;585599;241;24041;-76
2022/05/05 01:55:47;;;;;;;2.40;2.07;;;8.10;83.90;7.30;100674;;;;585622;241;24168;-76
2022/05/05 01:58:18;;;;;;;6.23;2.27;;;8.20;83.70;7.40;100684;;;;585429;241;24129;-77
2022/05/05 02:00:45;;;;;;;3.40;2.20;;;8.20;83.40;7.40;100678;;;;587291;240;24153;-80
2022/05/05 02:03:13;;;;;;;5.67;2.63;;;8.20;83.40;7.40;100671;;;;587678;240;24136;-80
2022/05/05 02:05:44;;;;;;;4.43;2.17;;;8.20;83.20;7.40;100663;;;;586998;240;24068;-80
2022/05/05 02:08:12;;;;;;;4.17;2.50;;;8.20;83.10;7.40;100667;;;;587706;240;24052;-77
2022/05/05 02:10:42;;;;;;;4.27;3.00;;;8.20;83.10;7.40;100671;;;;588278;240;24060;-80
2022/05/05 02:13:10;;;;;;;5.30;2.83;;;8.20;83.20;7.40;100663;;;;587803;240;24131;-77
2022/05/05 02:15:35;;;;;;;2.87;2.40;;;8.20;83.00;7.40;100670;;;;587166;240;24118;-78
2022/05/05 02:18:09;;;;;;;4.13;2.57;;;8.20;83.00;7.40;100678;;;;586212;240;24079;-79
2022/05/05 02:20:35;;;;;;;3.50;2.77;;;8.20;83.50;7.40;100673;;;;585167;240;24076;-80
2022/05/05 02:23:03;;;;;;;4.97;2.80;;;8.20;83.50;7.40;100668;;;;596559;237;24123;-79
2022/05/05 02:25:31;;;;;;;5.33;2.87;;;8.20;83.60;7.40;100663;;;;587324;237;24121;-80
2022/05/05 02:28:03;;;;;;;4.43;2.60;;;8.20;83.40;7.40;100670;;;;596712;240;24063;-80
2022/05/05 02:30:31;;;;;;;7.00;2.57;;;8.20;83.30;7.40;100701;;;;596441;240;24085;-82
2022/05/05 02:32:58;;;;;;;8.30;3.77;;;8.20;83.60;7.40;100679;;;;587140;240;24063;-75
2022/05/05 02:35:23;;;;;;;5.57;4.27;;;8.20;84.60;7.40;100671;;;;587028;241;24069;-76
2022/05/05 02:40:41;;;;;;;6.87;4.00;;;8.20;84.70;7.30;100679;;;;591858;241;24063;-78
2022/05/05 02:43:06;;;;;;;3.60;3.03;;;8.20;84.70;7.30;100657;;;;586794;241;24065;-76
2022/05/05 02:45:36;;;;;;;6.67;2.70;;;8.10;84.60;7.40;100648;;;;586944;241;24047;-76
2022/05/05 02:48:05;;;;;;;6.07;2.83;;;8.20;84.10;7.40;100648;;;;585102;241;24121;-77
2022/05/05 02:50:30;;;;;;;5.47;3.40;;;8.20;83.70;7.40;100655;;;;586509;241;24086;-79
2022/05/05 02:52:57;;;;;;;8.97;4.37;;;8.20;83.50;7.40;100661;;;;586583;241;24139;-75
2022/05/05 02:55:26;;;;;;;7.33;4.87;;;8.20;83.60;7.40;100649;;;;591067;241;24140;-75
2022/05/05 02:57:53;;;;;;;8.93;6.67;;;8.20;83.80;7.40;100657;;;;586314;241;24067;-75
2022/05/05 03:00:21;;;;;;;11.47;6.97;;;8.20;83.60;7.40;100655;;;;585306;241;24082;-76
2022/05/05 03:02:50;;;;;;;6.33;5.63;;;8.20;83.70;7.40;100650;;;;585570;241;24053;-76
2022/05/05 03:05:17;;;;;;;9.27;5.27;;;8.20;83.90;7.40;100641;;;;586548;241;24089;-76
2022/05/05 03:07:47;;;;;;;11.70;4.40;;;8.20;83.70;7.40;100642;;;;587236;241;24068;-79
2022/05/05 03:10:13;;;;;;;4.67;4.07;;;8.20;83.50;7.40;100647;;;;585922;241;24061;-79
2022/05/05 03:12:44;;;;;;;4.67;3.60;;;8.20;83.60;7.40;100649;;;;587205;240;24051;-75
2022/05/05 03:15:09;;;;;;;5.07;3.57;;;8.20;83.60;7.40;100649;;;;596895;240;24136;-78
2022/05/05 03:17:40;;;;;;;5.37;3.33;;;8.20;83.90;7.40;100641;;;;586692;240;24079;-78
2022/05/05 03:20:06;;;;;;;4.23;2.13;;;8.20;83.90;7.40;100646;;;;586332;240;24071;-78
2022/05/05 03:22:34;;;;;;;6.00;3.22;;;8.20;83.60;7.50;100640;;;;581297;240;35114;-77
2022/05/05 03:25:01;;;;;;;6.23;2.77;;;8.30;84.80;7.50;100637;;;;586262;240;24057;-77
2022/05/05 03:27:29;;;;;;;5.00;2.63;;;8.30;83.70;7.50;100643;;;;586195;240;24053;-76
2022/05/05 03:29:57;;;;;;;4.10;2.50;;;8.30;83.50;7.50;100649;;;;585968;240;24108;-77
2022/05/05 03:32:29;;;;;;;4.00;2.50;;;8.40;83.50;7.60;100644;;;;586008;240;24073;-78
2022/05/05 03:34:54;;;;;;;4.30;2.37;;;8.30;83.40;7.60;100641;;;;591213;240;24123;-76
2022/05/05 03:37:22;;;;;;;4.07;2.73;;;8.40;83.30;7.60;100642;;;;585967;240;24057;-76
2022/05/05 03:39:50;;;;;;;5.20;2.13;;;8.40;83.00;7.70;100648;;;;585771;240;24056;-76
2022/05/05 03:42:18;;;;;;;3.77;2.63;;;8.50;83.10;7.70;100636;;;;585676;240;24103;-77
2022/05/05 03:44:45;;;;;;;6.20;2.87;;;8.50;83.00;7.70;100639;;;;585773;240;24107;-76
2022/05/05 03:47:13;;;;;;;3.00;2.50;;;8.50;83.20;7.70;100624;;;;585625;241;24090;-75
2022/05/05 03:49:41;;;;;;;6.07;2.90;;;8.50;83.30;7.70;100627;;;;585684;236;24096;-77
2022/05/05 03:52:09;;;;;;;6.13;3.33;;;8.50;83.30;7.70;100624;;;;585960;241;24067;-77
2022/05/05 03:54:37;;;;;;;7.23;3.00;;;8.60;83.50;7.80;100617;;;;586706;241;24145;-76
2022/05/05 03:57:05;;;;;;;8.13;3.57;;;8.60;83.50;7.80;100628;;;;585861;241;24058;-76
2022/05/05 03:59:33;;;;;;;8.10;2.60;;;8.60;83.40;7.80;100628;;;;585877;241;24057;-77
2022/05/05 04:02:04;;;;;;;3.07;2.47;;;8.60;83.60;7.80;100630;;;;585872;241;24069;-76
2022/05/05 04:04:29;;;;;;;7.13;3.07;;;8.60;83.70;7.80;100633;;;;595312;241;24072;-75
2022/05/05 04:06:57;;;;;;;4.70;2.67;;;8.60;83.80;7.90;100645;;;;585727;241;24117;-77
2022/05/05 04:09:25;;;;;;;7.87;3.23;;;8.70;84.00;7.90;100642;;;;585815;241;24067;-77
2022/05/05 04:11:52;;;;;;;5.60;3.03;;;8.70;84.20;7.90;100640;;;;585824;241;24060;-76
2022/05/05 04:14:20;;;;;;;3.27;2.67;;;8.70;84.20;8.00;100638;;;;586649;241;24083;-76
2022/05/05 04:16:49;;;;;;;9.37;2.80;;;8.80;83.80;8.00;100648;;;;585807;241;24144;-76
2022/05/05 04:19:17;;;;;;;8.00;3.23;;;8.80;83.70;8.10;100651;;;;585830;241;24056;-75
2022/05/05 04:21:45;;;;;;;7.37;2.93;;;8.80;83.60;8.10;100647;;;;591599;241;24080;-75
2022/05/05 04:24:13;;;;;;;5.83;3.47;;;8.90;83.70;8.10;100651;;;;597202;239;24106;-76
2022/05/05 04:26:43;;;;;;;7.67;3.17;;;8.90;83.70;8.20;100652;;;;586920;240;24104;-75
2022/05/05 04:29:09;;;;;;;8.53;3.80;;;9.00;83.60;8.20;100645;;;;587156;240;24087;-76
2022/05/05 04:31:36;;;;;;;10.83;3.70;;;9.00;83.50;8.30;100651;;;;587386;240;24064;-76
2022/05/05 04:34:06;;;;;;;7.73;3.13;;;9.10;83.30;8.30;100655;;;;596452;240;24048;-77
2022/05/05 04:36:36;;;;;;;4.83;3.50;;;9.00;83.20;8.30;100667;;;;586630;240;24055;-75
2022/05/05 04:39:07;;;;;;;5.67;3.77;;;9.10;83.30;8.40;100657;;;;596345;240;24052;-75
2022/05/05 04:41:32;;;;;;;8.17;3.87;;;9.20;83.70;8.40;100662;;;;595590;240;24058;-77
2022/05/05 04:44:00;;;;;;;10.73;3.87;;;9.20;83.10;8.50;100657;;;;596150;240;24074;-76
2022/05/05 04:46:28;;;;;;;10.53;3.80;;;9.30;83.20;8.50;100658;;;;586118;240;24048;-77
2022/05/05 04:48:56;;;;;;;8.07;3.33;;;9.30;83.20;8.60;100660;;;;586196;240;24054;-76
2022/05/05 04:51:25;;;;;;;4.73;3.63;;;9.50;82.40;8.70;100655;;;;587264;240;24068;-77
2022/05/05 04:53:53;;;;;;;11.77;3.63;;;9.50;82.40;8.90;100655;;;;585921;240;24127;-76
2022/05/05 04:56:21;;;;;;;7.10;3.97;;;9.70;82.10;9.00;100654;;;;580922;240;46149;-76
2022/05/05 04:58:49;;;;;;;7.17;3.53;;;9.70;82.10;9.10;100654;;;;595843;241;24052;-80
2022/05/05 05:01:16;;;;;;;7.07;3.87;;;9.80;81.80;9.20;100662;;;;585675;241;24063;-78
2022/05/05 05:03:44;;;;;;;7.93;2.67;;;9.90;81.60;9.30;100660;;;;585809;241;24041;-76
2022/05/05 05:06:12;;;;;;;5.93;3.50;;;10.00;81.60;9.40;100658;;;;585963;241;24061;-76
2022/05/05 05:08:42;;;;;;;22.77;4.37;;;10.30;81.70;9.50;100654;;;;585574;241;24071;-76
2022/05/05 05:11:09;;;;;;;16.53;3.83;;;10.20;81.10;9.60;100659;;;;585819;241;24122;-78
2022/05/05 05:13:37;;;;;;;5.37;3.60;;;10.40;80.70;9.70;100651;;;;586252;241;24042;-76
2022/05/05 05:16:05;;;;;;;8.23;3.20;;;10.40;80.60;9.80;100648;;;;585835;241;24055;-75
2022/05/05 05:18:33;;;;;;;10.63;3.63;;;10.60;80.10;9.90;100649;;;;585772;241;24069;-76
2022/05/05 05:21:02;;;;;;;13.83;3.70;;;10.80;79.80;10.00;100646;;;;586412;241;24095;-77
2022/05/05 05:23:31;;;;;;;3.63;2.83;;;10.80;79.60;10.10;100654;;;;586170;241;24104;-77
2022/05/05 05:26:02;;;;;;;26.47;4.20;;;10.80;79.60;10.20;100656;;;;586311;241;24086;-82
2022/05/05 05:28:26;;;;;;;6.67;3.40;;;10.90;79.30;10.30;100660;;;;586733;241;24071;-78
2022/05/05 05:30:54;;;;;;;22.67;4.07;;;11.00;79.10;10.30;100659;;;;586578;241;24100;-78
2022/05/05 05:33:22;;;;;;;6.37;3.57;;;11.10;78.80;10.30;100650;;;;586243;241;24126;-77
2022/05/05 05:35:50;;;;;;;7.23;2.93;;;11.10;77.90;10.30;100655;;;;587476;240;24111;-77
2022/05/05 05:38:21;;;;;;;6.73;3.20;;;11.10;77.80;10.30;100652;;;;587423;240;24060;-78
2022/05/05 05:40:52;;;;;;;8.70;2.97;;;11.10;77.90;10.40;100660;;;;586514;240;24127;-76
2022/05/05 05:43:17;;;;;;;10.23;3.40;;;11.20;78.00;10.50;100655;;;;586196;240;24079;-77
2022/05/05 05:45:46;;;;;;;5.70;3.63;;;11.20;77.70;10.50;100655;;;;586418;240;24129;-76
2022/05/05 05:48:14;;;;;;;8.63;3.27;;;11.20;77.70;10.60;100653;;;;586562;240;24060;-79
2022/05/05 05:50:41;;;;;;;5.80;3.30;;;11.30;77.70;10.60;100672;;;;587223;240;24088;-80
2022/05/05 05:53:09;;;;;;;5.97;3.50;;;11.40;77.70;10.70;100686;;;;587562;240;24051;-79
2022/05/05 05:55:37;;;;;;;11.33;4.17;;;11.40;77.70;10.80;100682;;;;587159;236;24056;-81
2022/05/05 05:58:05;;;;;;;14.30;3.80;;;11.50;78.10;10.90;100682;;;;586862;240;24083;-77
2022/05/05 06:00:33;;;;;;;4.60;3.30;;;11.60;78.00;11.10;100680;;;;586816;240;24114;-78
2022/05/05 06:05:47;;;;;;;9.03;3.40;;;12.10;77.20;11.70;100654;;;;587340;240;24048;-78
2022/05/05 06:08:19;;;;;;;18.50;3.97;;;12.30;76.60;11.90;100660;;;;586675;240;24093;-79
2022/05/05 06:10:43;;;;;;;14.30;3.70;;;12.60;76.10;12.10;100666;;;;586116;241;24064;-80
2022/05/05 06:13:11;;;;;;;10.60;3.70;;;12.80;75.60;12.40;100679;;;;586308;241;24084;-76
2022/05/05 06:15:39;;;;;;;9.33;3.83;;;13.10;75.50;12.80;100669;;;;586538;241;24099;-78
2022/05/05 06:18:06;;;;;;;8.90;3.63;;;13.40;75.40;13.00;100664;;;;597200;241;24031;-78
2022/05/05 06:20:34;;;;;;;10.60;4.03;;;13.70;74.10;13.10;100672;;;;586505;241;24110;-80
2022/05/05 06:23:02;;;;;;;14.00;4.13;;;13.80;73.80;13.10;100670;;;;586386;241;24037;-80
2022/05/05 06:25:30;;;;;;;23.60;4.10;;;13.80;74.10;13.10;100673;;;;586282;241;24099;-82
2022/05/05 06:27:58;;;;;;;10.73;3.67;;;13.80;74.10;13.10;100681;;;;586264;241;24033;-82
2022/05/05 06:30:26;;;;;;;14.43;4.60;;;13.90;74.80;13.10;100682;;;;586358;241;24042;-81
2022/05/05 06:32:54;;;;;;;34.47;7.07;;;13.90;74.20;13.10;100682;;;;586289;241;24041;-81
2022/05/05 06:35:22;;;;;;;15.57;4.70;;;13.90;74.30;13.20;100678;;;;586260;241;24084;-80
2022/05/05 06:37:51;;;;;;;11.60;4.20;;;13.90;74.20;13.20;100675;;;;586294;241;24045;-81
2022/05/05 06:40:18;;;;;;;8.57;4.23;;;13.90;75.30;13.20;100679;;;;586301;241;24060;-80
2022/05/05 06:42:48;;;;;;;10.33;4.53;;;14.00;75.10;13.20;100681;;;;596636;241;24062;-81
2022/05/05 06:45:14;;;;;;;8.67;3.67;;;14.00;74.90;13.30;100673;;;;586109;241;24068;-81
2022/05/05 06:47:41;;;;;;;23.30;4.67;;;14.00;75.30;13.40;100672;;;;587562;240;24079;-77
2022/05/05 06:50:10;;;;;;;18.97;4.10;;;14.10;75.70;13.60;100670;;;;587121;240;24062;-79
2022/05/05 06:52:38;;;;;;;12.50;3.80;;;14.20;75.80;13.80;100670;;;;587530;240;24105;-82
2022/05/05 06:55:06;;;;;;;21.20;4.40;;;14.40;75.70;14.20;100678;;;;586761;240;24103;-80
2022/05/05 06:57:37;;;;;;;10.23;4.70;;;14.80;75.20;14.50;100678;;;;587112;240;24122;-82
2022/05/05 07:00:02;;;;;;;12.07;4.57;;;15.10;75.00;14.80;100678;;;;586235;240;24089;-81
2022/05/05 07:02:30;;;;;;;17.60;4.33;;;15.70;73.90;15.10;100687;;;;585250;240;24055;-82
2022/05/05 07:07:45;;;;;;;9.30;4.53;;;16.20;73.40;16.60;100678;;;;587070;240;24045;-81
2022/05/05 07:12:59;;;;;;;12.30;4.70;;;18.20;69.70;19.10;100686;;;;587063;240;24048;-82
2022/05/05 07:15:27;;;;;;;9.53;4.73;;;19.50;65.30;20.30;100697;;;;585969;240;24093;-83
2022/05/05 07:17:58;;;;;;;42.77;7.03;;;21.80;58.60;21.40;100699;;;;586081;240;23073;-80
2022/05/05 07:20:24;;;;;;;21.47;5.33;;;23.60;57.20;23.50;100702;;;;585729;240;24088;-82
2022/05/05 07:22:53;;;;;;;9.80;4.63;;;25.80;52.00;25.60;100706;;;;585675;241;24089;-78
2022/05/05 07:25:21;;;;;;;10.30;4.00;;;25.60;51.90;26.20;100705;;;;585766;241;24043;-80
2022/05/05 07:27:49;;;;;;;42.23;7.80;;;26.80;49.30;26.40;100706;;;;585675;241;23092;-76
2022/05/05 07:30:17;;;;;;;34.00;6.67;;;27.20;47.40;26.30;100709;;;;585745;241;24057;-79
2022/05/05 07:32:48;;;;;;;16.00;5.50;;;27.20;45.90;26.10;100697;;;;585779;241;24050;-75
2022/05/05 07:35:12;;;;;;;9.93;4.87;;;27.00;45.90;26.40;100701;;;;595548;237;23099;-77
2022/05/05 07:37:40;;;;;;;8.80;5.17;;;27.20;45.80;26.80;100719;;;;586053;241;23063;-83
2022/05/05 07:40:11;;;;;;;7.63;4.80;;;27.50;45.80;26.90;100714;;;;586148;241;23067;-85
2022/05/05 07:42:41;;;;;;;10.53;4.43;;;27.60;44.30;26.50;100714;;;;586502;241;24089;-81
2022/05/05 07:45:10;;;;;;;10.63;4.60;;;27.20;45.50;26.20;100720;;;;586607;241;24073;-83
2022/05/05 07:47:41;;;;;;;13.87;4.77;;;27.10;45.30;25.70;100707;;;;587495;241;24080;-80
2022/05/05 07:50:06;;;;;;;13.70;4.87;;;26.70;44.80;24.80;100717;;;;585843;241;23086;-78
2022/05/05 07:52:34;;;;;;;12.47;4.83;;;26.00;45.30;24.00;100717;;;;596394;241;24049;-83
2022/05/05 07:55:02;;;;;;;7.50;4.57;;;25.20;46.60;23.60;100717;;;;586401;241;23111;-79
2022/05/05 07:57:30;;;;;;;28.67;5.90;;;24.50;47.50;23.10;100715;;;;587142;240;23088;-76
2022/05/05 07:59:58;;;;;;;18.10;5.67;;;24.00;48.50;22.60;100723;;;;587594;240;24083;-78
2022/05/05 08:02:26;;;;;;;14.98;5.32;;;23.50;49.40;22.50;100723;;;;582009;240;35128;-82
2022/05/05 08:04:54;;;;;;;7.97;4.30;;;23.30;50.60;22.30;100709;;;;586907;240;24064;-80
2022/05/05 08:07:22;;;;;;;12.73;4.90;;;23.10;50.70;22.20;100711;;;;586839;240;24046;-76
2022/05/05 08:09:50;;;;;;;8.63;5.03;;;22.80;51.00;22.10;100705;;;;586596;240;24036;-81
2022/05/05 08:12:17;;;;;;;17.03;5.57;;;22.70;51.70;22.50;100711;;;;586719;240;24093;-76
2022/05/05 08:14:45;;;;;;;71.10;9.63;;;22.90;52.40;23.70;100709;;;;586622;240;24063;-79
2022/05/05 08:17:14;;;;;;;22.90;5.93;;;23.90;52.30;24.70;100717;;;;586374;240;24157;-78
2022/05/05 08:19:41;;;;;;;31.10;5.97;;;24.90;50.50;25.30;100713;;;;586264;240;25108;-81
2022/05/05 08:22:09;;;;;;;33.67;6.23;;;25.70;48.60;25.70;100702;;;;586977;240;23062;-80
2022/05/05 08:30:09;;;;;;;13.00;4.87;;;26.50;46.90;25.80;100722;;;;587119;240;23071;-76
2022/05/05 08:32:37;;;;;;;15.83;4.97;;;26.50;46.50;25.30;100722;;;;586946;240;24073;-79
2022/05/05 08:35:05;;;;;;;24.63;6.57;;;25.90;47.60;25.10;100725;;;;586129;241;23090;-80
2022/05/05 08:37:33;;;;;;;15.73;5.60;;;25.90;47.40;25.40;100728;;;;586048;241;24057;-78
2022/05/05 08:40:02;;;;;;;14.67;5.17;;;26.00;47.90;27.00;100733;;;;586081;241;23055;-78
2022/05/05 08:42:29;;;;;;;12.53;4.90;;;27.30;46.90;27.90;100731;;;;585973;241;23059;-77
2022/05/05 08:44:58;;;;;;;7.47;4.57;;;28.30;45.80;29.10;100734;;;;586131;241;23075;-77
2022/05/05 08:47:25;;;;;;;8.30;4.73;;;29.40;44.70;29.30;100744;;;;586061;241;24095;-81
2022/05/05 08:49:56;;;;;;;8.00;4.45;;;30.00;43.70;29.80;100751;;;;585768;241;23071;-79
2022/05/05 08:52:24;;;;;;;6.47;3.78;;;30.50;43.10;30.30;100746;;;;585584;241;23072;-78
2022/05/05 08:54:52;;;;;;;6.80;4.55;;;31.00;43.20;30.60;100746;;;;581382;241;35219;-78
2022/05/05 08:57:19;;;;;;;11.75;4.40;;;31.50;41.40;30.00;100748;;;;586161;241;23055;-82
2022/05/05 08:59:47;;;;;;;15.75;4.75;;;31.10;41.20;29.50;100743;;;;586108;241;24039;-81
2022/05/05 09:02:16;;;;;;;11.18;4.70;;;30.60;41.80;29.10;100736;;;;586205;241;24074;-81
2022/05/05 09:04:44;;;;;;;7.50;4.40;;;30.20;42.10;28.30;100729;;;;586103;241;23070;-82
2022/05/05 09:07:14;;;;;;;10.80;5.00;;;29.50;43.00;27.90;100738;;;;595867;241;23071;-83
2022/05/05 09:09:39;;;;;;;10.63;4.23;;;28.80;43.70;28.00;100739;;;;586851;240;24114;-82
2022/05/05 09:12:13;;;;;;;13.60;4.43;;;28.70;44.10;28.70;100747;;;;586313;240;23054;-81
2022/05/05 09:14:53;;;;;;;12.85;4.80;;;29.20;44.00;29.80;100756;;;;587159;240;24059;-80
2022/05/05 09:17:20;;;;;;;9.00;4.30;;;30.20;43.00;30.30;100741;;;;587276;240;23136;-80
2022/05/05 09:19:49;;;;;;;8.57;5.40;;;30.80;41.70;29.70;100748;;;;587203;240;23079;-80
2022/05/05 09:22:18;;;;;;;8.57;4.53;;;30.30;41.90;29.10;100755;;;;586471;240;24152;-77
2022/05/05 09:24:49;;;;;;;12.93;5.05;;;30.30;41.90;28.70;100753;;;;586705;240;23138;-78
2022/05/05 09:27:34;;;;;;;6.25;3.97;;;29.80;42.80;28.70;100758;;;;586293;240;24056;-84
2022/05/05 09:30:09;;;;;;;14.77;3.78;;;29.20;44.80;28.50;100759;;;;586374;240;23076;-80
2022/05/05 09:32:42;;;;;;;6.85;2.95;;;29.20;44.10;27.80;100766;;;;586327;240;24124;-79
2022/05/05 09:35:16;;;;;;;2.57;2.37;;;28.70;44.60;26.90;100767;;;;587049;240;23078;-79
2022/05/05 09:37:47;;;;;;;3.60;3.17;;;27.90;45.30;26.20;100768;;;;587446;240;24070;-81
2022/05/05 09:40:17;;;;;;;6.80;3.50;;;27.10;46.40;25.50;100771;;;;586936;240;23085;-76
2022/05/05 09:42:42;;;;;;;5.93;2.90;;;26.40;47.60;24.90;100771;;;;586721;240;24085;-80
2022/05/05 09:45:17;;;;;;;2.80;2.60;;;25.10;49.50;24.40;100772;;;;586672;241;23157;-82
2022/05/05 09:47:50;;;;;;;5.03;2.87;;;25.10;49.40;24.00;100781;;;;586298;241;23073;-81
2022/05/05 09:50:21;;;;;;;7.80;2.80;;;24.70;50.40;23.80;100786;;;;585525;241;24084;-77
2022/05/05 09:58:22;;;;;;;4.17;3.73;;;23.40;52.90;22.80;100789;;;;586777;241;24046;-79
2022/05/05 10:01:09;;;;;;;4.03;3.57;;;23.40;52.90;22.50;100784;;;;586489;241;24060;-82
2022/05/05 10:06:28;;;;;;;6.03;4.20;;;22.90;54.30;21.80;100794;;;;587020;241;24087;-78
2022/05/05 10:09:00;;;;;;;5.17;4.37;;;22.40;54.90;21.50;100795;;;;586484;241;24089;-80
2022/05/05 10:11:25;;;;;;;6.87;4.37;;;22.10;55.60;21.30;100792;;;;586657;241;24062;-81
2022/05/05 10:13:52;;;;;;;5.10;4.33;;;21.90;56.80;21.10;100803;;;;586975;241;23093;-83
2022/05/05 10:16:24;;;;;;;8.40;5.53;;;21.40;58.00;20.90;100795;;;;586456;241;24112;-83
2022/05/05 10:18:52;;;;;;;9.57;4.77;;;21.40;58.00;20.70;100798;;;;585830;241;24050;-84
2022/05/05 10:21:40;;;;;;;12.17;5.07;;;21.20;59.40;20.60;100803;;;;586837;240;24291;-82
2022/05/05 10:24:35;;;;;;;9.73;4.97;;;21.10;61.50;20.50;100796;;;;587922;240;23107;-81
2022/05/05 10:27:07;;;;;;;8.17;5.23;;;21.00;64.10;20.20;100800;;;;587476;240;24071;-81
2022/05/05 10:29:40;;;;;;;5.37;4.27;;;20.80;66.20;19.80;100800;;;;587332;240;24057;-84
2022/05/05 10:32:13;;;;;;;6.23;5.47;;;20.50;68.40;19.50;100797;;;;587092;240;23075;-79
2022/05/05 10:34:41;;;;;;;9.33;5.43;;;20.10;69.60;19.40;100796;;;;596057;240;23120;-79
2022/05/05 10:37:09;;;;;;;11.13;5.67;;;19.90;71.50;19.20;100803;;;;586950;240;23102;-81
2022/05/05 10:39:46;;;;;;;10.00;5.60;;;19.70;73.40;19.10;100812;;;;595957;240;24102;-81
2022/05/05 10:42:20;;;;;;;6.80;4.90;;;19.60;75.50;19.10;100808;;;;585863;240;24079;-77
2022/05/05 10:45:15;;;;;;;5.87;5.37;;;19.60;77.30;19.10;100811;;;;586640;240;24068;-82
2022/05/05 10:48:07;;;;;;;5.77;5.13;;;19.60;79.20;19.20;100805;;;;586751;240;24113;-80
2022/05/05 10:50:38;;;;;;;5.70;5.17;;;19.70;80.30;19.30;100799;;;;585796;240;23106;-81
2022/05/05 10:53:03;;;;;;;6.00;5.50;;;19.70;80.30;19.30;100801;;;;585492;240;24163;-79
2022/05/05 10:55:49;;;;;;;5.97;5.37;;;19.80;81.70;19.10;100806;;;;586334;240;24100;-81
2022/05/05 10:58:14;;;;;;;6.93;5.90;;;19.60;83.50;19.00;100805;;;;586257;241;24061;-77
2022/05/05 11:00:45;;;;;;;6.37;5.83;;;19.50;85.70;18.90;100809;;;;583053;241;24130;-80
2022/05/05 11:03:14;;;;;;;6.77;5.87;;;19.50;86.90;18.90;100812;;;;586157;241;23160;-80
2022/05/05 11:05:41;;;;;;;6.70;5.00;;;19.50;86.90;19.00;100807;;;;586377;241;24100;-78
2022/05/05 11:08:19;;;;;;;6.60;5.93;;;19.50;87.90;19.00;100805;;;;585956;240;24115;-81
2022/05/05 11:11:39;;;;;;;7.00;5.63;;;19.50;87.30;18.80;100815;;;;585429;236;24094;-78
2022/05/05 11:13:38;;;;;;;7.27;6.50;;;19.40;88.30;18.70;100823;;;;585996;241;24066;-76
2022/05/05 11:22:18;;;;;;;5.73;5.27;;;18.90;91.00;18.30;100812;;;;585925;241;24060;-78
2022/05/05 11:24:46;;;;;;;6.30;5.70;;;18.80;91.80;18.40;100804;;;;585767;241;24081;-77
2022/05/05 11:27:16;;;;;;;6.03;5.33;;;18.90;92.00;18.40;100795;;;;586035;241;24177;-81
2022/05/05 11:29:53;;;;;;;9.50;6.40;;;19.00;92.10;18.60;100797;;;;594434;241;24045;-75
2022/05/05 11:32:32;;;;;;;7.97;6.63;;;19.10;93.10;18.60;100797;;;;586150;240;24080;-82
2022/05/05 11:34:59;;;;;;;7.23;6.53;;;19.10;93.00;18.60;100794;;;;596174;240;24116;-79
2022/05/05 11:37:26;;;;;;;5.93;5.37;;;19.10;93.50;18.50;100793;;;;587080;240;24080;-76
2022/05/05 11:39:54;;;;;;;7.37;6.20;;;19.00;93.00;18.40;100785;;;;586327;240;24129;-76
2022/05/05 11:42:22;;;;;;;7.13;5.47;;;19.00;92.90;18.40;100782;;;;586249;240;24091;-76
2022/05/05 11:44:50;;;;;;;8.93;6.17;;;19.00;92.80;18.30;100784;;;;586175;240;24054;-79
2022/05/05 11:47:18;;;;;;;7.30;6.23;;;18.90;92.70;18.40;100784;;;;586300;240;24088;-83
2022/05/05 11:49:52;;;;;;;7.33;6.50;;;18.90;93.30;18.40;100793;;;;586813;240;24075;-80
2022/05/05 11:52:20;;;;;;;7.57;6.77;;;18.90;94.40;18.40;100795;;;;585350;240;24083;-76
2022/05/05 11:54:51;;;;;;;12.40;6.53;;;18.90;94.40;18.50;100791;;;;586093;240;24135;-76
2022/05/05 11:57:38;;;;;;;8.53;6.63;;;19.00;94.70;18.70;100790;;;;586617;240;23082;-80
2022/05/05 12:02:50;;;;;;;9.60;7.83;;;19.40;94.40;19.10;100798;;;;586627;237;23113;-80
2022/05/05 12:05:21;;;;;;;12.07;6.60;;;19.60;94.40;19.10;100802;;;;586109;240;24084;-79